Decoded Metar for KLCH (LAKE CHARLES in LA, USA) (IATA:LCH) | Meteo·Mobile Aviation Weather
aviador You're here:

KLCH Decoded Metar

LAKE CHARLES in LA, USA
Report Time2018-09-20 03:53:00
UTC Time2018-09-20 04:21:41
Flight Rules vfr VFR
Wind040° at 03 kt
W.Decomp.*RWY 05: 2.9 kt HW 0.7 kt LCW
RWY 33: 1.2 kt HW 2.8 kt RCW
W.Rank040° ranks 9
Current wind is below 040° avg. (7.4)
Visibility9999 m
Phenomena:N/A
Clouds:Scattered 075 Hf
Expected CloudBase > 1,600 ft AGL from Temp-Dew spread
CeilingNone
Temp26°C (ISA +11)
Dew Point22°C (79% RH)
QNH1015 hPa
Density Alt1,568 ft
Elevation13 ft
Report Wrong Elevation
Raw Report
KLCH 200353Z AUTO 04003KT 10SM SCT075 26/22 A2997 RMK AO2 SLP155
T02610222=

Extra information for KLCH:More info

Metar Taf Metar & Taf Last 4 Metars F.Rules Stats Wind Profile Meteogram Temp Stats Airport Information Weather charts Add Link Nearby VenuesMetar ALERT Operation Metar Decoded Social comments

AIRNAV info for KLCH